createdAt,value
2022-08-19T00:04:07.470Z,100619.38
2022-08-19T00:06:36.486Z,100627.56
2022-08-19T00:09:06.723Z,100625.91
2022-08-19T00:11:35.602Z,100618.75
2022-08-19T00:14:02.487Z,100625.31
2022-08-19T00:16:29.322Z,100627.22
2022-08-19T00:18:56.662Z,100629.34
2022-08-19T00:21:25.084Z,100630.16
2022-08-19T00:23:51.512Z,100632.53
2022-08-19T00:26:18.126Z,100633.38
2022-08-19T00:28:44.618Z,100634.66
2022-08-19T00:31:11.234Z,100641.41
2022-08-19T00:33:37.784Z,100629.28
2022-08-19T00:36:07.370Z,100633.09
2022-08-19T00:38:37.805Z,100639.63
2022-08-19T00:41:06.342Z,100641.50
2022-08-19T00:43:32.866Z,100636.28
2022-08-19T00:45:59.357Z,100636.28
2022-08-19T00:48:25.993Z,100629.16
2022-08-19T00:50:54.151Z,100631.88
2022-08-19T00:53:23.757Z,100632.75
2022-08-19T00:55:53.551Z,100629.16
2022-08-19T00:58:22.928Z,100627.50
2022-08-19T01:00:49.750Z,100627.50
2022-08-19T01:03:19.272Z,100620.38
2022-08-19T01:05:48.193Z,100624.16
2022-08-19T01:08:16.802Z,100617.25
2022-08-19T01:10:47.864Z,100615.41
2022-08-19T01:13:21.000Z,100613.72
2022-08-19T01:15:52.426Z,100603.88
2022-08-19T01:18:20.482Z,100614.19
2022-08-19T01:20:47.687Z,100608.13
2022-08-19T01:23:15.726Z,100613.81
2022-08-19T01:25:50.902Z,100610.84
2022-08-19T01:28:32.203Z,100603.13
2022-08-19T01:31:01.270Z,100602.28
2022-08-19T01:33:34.609Z,100602.53
2022-08-19T01:36:09.603Z,100612.59
2022-08-19T01:38:44.396Z,100612.25
2022-08-19T01:41:12.494Z,100613.53
2022-08-19T01:43:39.093Z,100609.38
2022-08-19T01:46:25.792Z,100612.59
2022-08-19T01:48:52.247Z,100616.59
2022-08-19T01:51:18.767Z,100612.44
2022-08-19T01:53:49.221Z,100607.16
2022-08-19T01:56:15.666Z,100602.41
2022-08-19T01:58:48.651Z,100600.75
2022-08-19T02:01:15.232Z,100603.94
2022-08-19T02:03:41.733Z,100604.16
2022-08-19T02:06:08.441Z,100606.28
2022-08-19T02:08:38.463Z,100611.97
2022-08-19T02:11:06.929Z,100613.28
2022-08-19T02:13:34.569Z,100611.00
2022-08-19T02:16:01.078Z,100608.50
2022-08-19T02:18:30.825Z,100609.78
2022-08-19T02:20:57.433Z,100602.91
2022-08-19T02:23:24.010Z,100609.63
2022-08-19T02:25:52.275Z,100601.09
2022-08-19T02:28:19.254Z,100597.16
2022-08-19T02:30:47.425Z,100590.72
2022-08-19T02:33:14.013Z,100585.72
2022-08-19T02:35:47.789Z,100590.81
2022-08-19T02:38:26.863Z,100586.25
2022-08-19T02:40:57.342Z,100589.91
2022-08-19T02:43:27.319Z,100592.94
2022-08-19T02:45:55.138Z,100592.16
2022-08-19T02:48:23.586Z,100594.72
2022-08-19T02:50:56.390Z,100589.91
2022-08-19T02:53:25.402Z,100603.16
2022-08-19T02:55:52.404Z,100593.19
2022-08-19T02:58:20.720Z,100591.72
2022-08-19T03:00:50.604Z,100600.94
2022-08-19T03:03:17.819Z,100593.47
2022-08-19T03:05:48.187Z,100589.88
2022-08-19T03:08:22.497Z,100586.56
2022-08-19T03:10:49.160Z,100590.59
2022-08-19T03:13:18.362Z,100593.31
2022-08-19T03:15:47.866Z,100581.78
2022-08-19T03:18:14.805Z,100584.72
2022-08-19T03:20:59.948Z,100571.34
2022-08-19T03:23:26.706Z,100577.00
2022-08-19T03:25:58.398Z,100585.44
2022-08-19T03:28:42.715Z,100594.88
2022-08-19T03:31:45.589Z,100591.53
2022-08-19T03:34:05.427Z,100594.47
2022-08-19T03:36:34.659Z,100599.28
2022-08-19T03:39:02.318Z,100599.53
2022-08-19T03:41:44.316Z,100605.81
2022-08-19T03:44:16.777Z,100599.75
2022-08-19T03:46:46.146Z,100608.16
2022-08-19T03:49:14.361Z,100613.81
2022-08-19T03:51:43.192Z,100621.59
2022-08-19T03:54:12.631Z,100619.09
2022-08-19T03:56:40.708Z,100610.53
2022-08-19T03:59:09.772Z,100606.38
2022-08-19T04:01:36.403Z,100606.81
2022-08-19T04:04:04.746Z,100609.97
2022-08-19T04:06:34.925Z,100613.75
2022-08-19T04:09:04.542Z,100613.38
2022-08-19T04:11:43.706Z,100608.13
2022-08-19T04:14:13.508Z,100614.84
2022-08-19T04:16:40.000Z,100615.09
2022-08-19T04:19:07.707Z,100612.56
2022-08-19T04:21:35.047Z,100612.78
2022-08-19T04:24:02.049Z,100621.19
2022-08-19T04:26:35.603Z,100615.94
2022-08-19T04:29:12.373Z,100623.28
2022-08-19T04:31:41.054Z,100618.03
2022-08-19T04:34:09.379Z,100612.59
2022-08-19T04:36:38.023Z,100609.88
2022-08-19T04:39:08.389Z,100611.78
2022-08-19T04:41:54.425Z,100618.28
2022-08-19T04:44:22.321Z,100619.13
2022-08-19T04:46:51.957Z,100621.00
2022-08-19T04:49:22.727Z,100625.38
2022-08-19T04:51:50.928Z,100626.22
2022-08-19T04:54:37.247Z,100623.50
2022-08-19T04:57:07.541Z,100631.44
2022-08-19T04:59:34.572Z,100625.81
2022-08-19T05:02:01.224Z,100629.13
2022-08-19T05:04:29.719Z,100633.28
2022-08-19T05:06:59.457Z,100635.81
2022-08-19T05:09:56.579Z,100638.06
2022-08-19T05:12:16.580Z,100633.25
2022-08-19T05:14:43.232Z,100623.56
2022-08-19T05:17:26.557Z,100635.09
2022-08-19T05:20:12.834Z,100629.19
2022-08-19T05:22:39.737Z,100633.16
2022-08-19T05:25:13.004Z,100640.88
2022-08-19T05:27:40.269Z,100646.94
2022-08-19T05:30:07.552Z,100651.13
2022-08-19T05:32:34.086Z,100644.41
2022-08-19T05:35:00.599Z,100651.06
2022-08-19T05:37:28.414Z,100652.28
2022-08-19T05:39:55.737Z,100652.47
2022-08-19T05:42:23.914Z,100647.19
2022-08-19T05:44:51.148Z,100641.28
2022-08-19T05:47:19.777Z,100639.53
2022-08-19T05:49:46.401Z,100644.34
2022-08-19T05:52:16.483Z,100644.50
2022-08-19T05:54:51.105Z,100648.22
2022-08-19T05:57:21.287Z,100645.47
2022-08-19T05:59:49.431Z,100645.38
2022-08-19T06:02:20.331Z,100645.34
2022-08-19T06:04:46.858Z,100642.31
2022-08-19T06:07:13.596Z,100638.66
2022-08-19T06:09:41.420Z,100637.75
2022-08-19T06:12:10.270Z,100632.84
2022-08-19T06:14:41.712Z,100630.03
2022-08-19T06:17:09.243Z,100634.59
2022-08-19T06:19:40.645Z,100632.84
2022-08-19T06:22:08.614Z,100624.53
2022-08-19T06:24:36.192Z,100621.75
2022-08-19T06:27:04.129Z,100631.72
2022-08-19T06:29:31.243Z,100617.44
2022-08-19T06:32:00.312Z,100614.84
2022-08-19T06:34:29.064Z,100614.72
2022-08-19T06:36:57.182Z,100620.56
2022-08-19T06:39:29.556Z,100615.00
2022-08-19T06:42:11.167Z,100616.22
2022-08-19T06:44:42.850Z,100618.00
2022-08-19T06:47:14.919Z,100609.94
2022-08-19T06:49:50.020Z,100606.06
2022-08-19T06:52:17.733Z,100600.47
2022-08-19T06:54:55.875Z,100611.28
2022-08-19T06:57:24.581Z,100615.34
2022-08-19T06:59:51.208Z,100613.34
2022-08-19T07:04:44.518Z,100608.88
2022-08-19T07:07:21.283Z,100611.84
2022-08-19T07:09:51.648Z,100610.66
2022-08-19T07:12:30.200Z,100616.59
2022-08-19T07:15:00.247Z,100622.88
2022-08-19T07:17:28.886Z,100615.13
2022-08-19T07:19:56.222Z,100619.41
2022-08-19T07:22:26.256Z,100620.47
2022-08-19T07:24:53.589Z,100626.16
2022-08-19T07:27:24.298Z,100622.78
2022-08-19T07:29:55.854Z,100623.00
2022-08-19T07:32:26.910Z,100623.19
2022-08-19T07:34:57.025Z,100628.03
2022-08-19T07:37:32.542Z,100624.91
2022-08-19T07:39:59.917Z,100624.00
2022-08-19T07:42:26.699Z,100628.06
2022-08-19T07:44:53.131Z,100621.91
2022-08-19T07:47:50.228Z,100637.69
2022-08-19T07:50:10.214Z,100637.63
2022-08-19T07:52:39.510Z,100642.69
2022-08-19T07:55:08.056Z,100648.34
2022-08-19T07:57:54.610Z,100645.78
2022-08-19T08:00:23.779Z,100645.63
2022-08-19T08:02:51.371Z,100648.75
2022-08-19T08:05:38.022Z,100651.94
2022-08-19T08:08:44.530Z,100646.00
2022-08-19T08:11:19.867Z,100655.78
2022-08-19T08:13:46.854Z,100651.50
2022-08-19T08:16:31.038Z,100648.66
2022-08-19T08:18:58.719Z,100646.00
2022-08-19T08:21:25.173Z,100657.16
2022-08-19T08:23:55.673Z,100655.63
2022-08-19T08:26:23.334Z,100662.06
2022-08-19T08:28:50.201Z,100661.38
2022-08-19T08:31:16.774Z,100667.22
2022-08-19T08:33:43.322Z,100664.84
2022-08-19T08:36:10.441Z,100671.78
2022-08-19T08:38:41.799Z,100674.09
2022-08-19T08:41:35.906Z,100672.00
2022-08-19T08:44:05.554Z,100673.19
2022-08-19T08:46:39.610Z,100670.53
2022-08-19T08:49:43.804Z,100678.34
2022-08-19T08:52:32.065Z,100679.00
2022-08-19T08:55:04.202Z,100664.78
2022-08-19T08:57:54.468Z,100664.03
2022-08-19T09:00:26.124Z,100674.53
2022-08-19T09:02:52.555Z,100666.56
2022-08-19T09:05:26.083Z,100668.78
2022-08-19T09:08:09.767Z,100672.91
2022-08-19T09:10:55.491Z,100666.34
2022-08-19T09:13:23.193Z,100676.53
2022-08-19T09:15:57.670Z,100668.81
2022-08-19T09:18:24.646Z,100664.16
2022-08-19T09:20:51.095Z,100667.44
2022-08-19T09:23:17.642Z,100663.31
2022-08-19T09:25:44.142Z,100670.50
2022-08-19T09:28:22.703Z,100657.84
2022-08-19T09:30:53.620Z,100659.56
2022-08-19T09:33:29.104Z,100655.16
2022-08-19T09:36:31.287Z,100651.69
2022-08-19T09:39:20.891Z,100658.63
2022-08-19T09:42:16.170Z,100655.91
2022-08-19T09:45:10.487Z,100658.97
2022-08-19T09:47:40.742Z,100655.13
2022-08-19T09:50:09.684Z,100656.59
2022-08-19T09:52:38.392Z,100653.28
2022-08-19T09:55:10.310Z,100651.91
2022-08-19T09:57:37.166Z,100645.28
2022-08-19T10:00:06.576Z,100656.31
2022-08-19T10:02:33.438Z,100653.22
2022-08-19T10:05:26.878Z,100654.84
2022-08-19T10:07:53.863Z,100645.97
2022-08-19T10:10:24.150Z,100639.91
2022-08-19T10:12:51.403Z,100643.19
2022-08-19T10:15:29.060Z,100651.22
2022-08-19T10:17:56.319Z,100638.78
2022-08-19T10:20:23.719Z,100638.22
2022-08-19T10:22:51.893Z,100639.34
2022-08-19T10:25:19.953Z,100640.41
2022-08-19T10:27:51.341Z,100646.72
2022-08-19T10:30:18.265Z,100644.78
2022-08-19T10:32:47.187Z,100638.66
2022-08-19T10:35:16.069Z,100635.56
2022-08-19T10:37:57.615Z,100636.59
2022-08-19T10:40:29.494Z,100629.03
2022-08-19T10:42:57.058Z,100633.34
2022-08-19T10:45:26.929Z,100628.25
2022-08-19T10:47:54.921Z,100625.94
2022-08-19T10:50:40.674Z,100620.94
2022-08-19T10:53:12.413Z,100620.06
2022-08-19T10:55:57.690Z,100620.28
2022-08-19T10:58:24.651Z,100616.41
2022-08-19T11:00:58.784Z,100613.63
2022-08-19T11:03:26.708Z,100615.88
2022-08-19T11:06:08.291Z,100616.41
2022-08-19T11:08:38.460Z,100619.69
2022-08-19T11:11:06.735Z,100609.72
2022-08-19T11:13:38.277Z,100612.94
2022-08-19T11:16:11.996Z,100609.25
2022-08-19T11:18:41.232Z,100612.72
2022-08-19T11:21:13.475Z,100615.09
2022-08-19T11:23:40.645Z,100609.69
2022-08-19T11:26:07.556Z,100597.34
2022-08-19T11:28:34.244Z,100600.53
2022-08-19T11:31:00.698Z,100605.41
2022-08-19T11:33:27.422Z,100592.88
2022-08-19T11:35:55.115Z,100592.66
2022-08-19T11:38:21.559Z,100593.84
2022-08-19T11:40:55.913Z,100582.28
2022-08-19T11:43:22.608Z,100581.31
2022-08-19T11:45:49.701Z,100585.84
2022-08-19T11:48:16.193Z,100577.94
2022-08-19T11:50:43.183Z,100584.97
2022-08-19T11:53:10.886Z,100577.53
2022-08-19T11:55:44.090Z,100578.06
2022-08-19T11:58:18.624Z,100578.84
2022-08-19T12:00:46.241Z,100569.41
2022-08-19T12:03:15.882Z,100569.34
2022-08-19T12:05:42.956Z,100568.41
2022-08-19T12:08:09.754Z,100564.75
2022-08-19T12:10:36.551Z,100570.84
2022-08-19T12:13:03.042Z,100565.50
2022-08-19T12:15:36.842Z,100570.16
2022-08-19T12:18:05.099Z,100571.75
2022-08-19T12:20:31.982Z,100572.19
2022-08-19T12:23:02.075Z,100568.75
2022-08-19T12:25:28.584Z,100563.66
2022-08-19T12:27:57.453Z,100558.59
2022-08-19T12:30:24.491Z,100556.78
2022-08-19T12:32:52.197Z,100560.00
2022-08-19T12:35:22.059Z,100563.19
2022-08-19T12:37:57.043Z,100551.75
2022-08-19T12:40:26.323Z,100551.94
2022-08-19T12:42:53.717Z,100545.81
2022-08-19T12:45:20.133Z,100552.69
2022-08-19T12:47:47.764Z,100545.50
2022-08-19T12:50:14.388Z,100542.19
2022-08-19T12:52:43.298Z,100536.97
2022-08-19T12:55:11.549Z,100540.84
2022-08-19T12:57:38.578Z,100535.28
2022-08-19T13:00:13.510Z,100546.41
2022-08-19T13:02:46.644Z,100554.72
2022-08-19T13:05:20.974Z,100544.75
2022-08-19T13:07:47.979Z,100544.84
2022-08-19T13:10:17.315Z,100549.88
2022-08-19T13:12:45.814Z,100548.84
2022-08-19T13:15:13.215Z,100548.84
2022-08-19T13:17:42.216Z,100544.41
2022-08-19T13:20:10.088Z,100538.84
2022-08-19T13:22:37.085Z,100538.25
2022-08-19T13:25:06.270Z,100542.69
2022-08-19T13:27:32.910Z,100532.13
2022-08-19T13:30:18.509Z,100530.16
2022-08-19T13:33:03.487Z,100532.59
2022-08-19T13:35:29.937Z,100527.91
2022-08-19T13:37:56.474Z,100523.72
2022-08-19T13:40:25.031Z,100525.53
2022-08-19T13:42:53.952Z,100520.44
2022-08-19T13:45:23.176Z,100512.25
2022-08-19T13:47:57.003Z,100508.47
2022-08-19T13:50:28.977Z,100507.47
2022-08-19T13:52:56.920Z,100508.38
2022-08-19T13:55:25.488Z,100504.06
2022-08-19T13:57:57.961Z,100498.94
2022-08-19T14:00:27.464Z,100495.72
2022-08-19T14:02:56.761Z,100491.78
2022-08-19T14:05:24.451Z,100488.38
2022-08-19T14:07:51.420Z,100489.38
2022-08-19T14:10:19.767Z,100489.59
2022-08-19T14:12:47.218Z,100495.66
2022-08-19T14:15:14.929Z,100486.72
2022-08-19T14:17:43.707Z,100489.16
2022-08-19T14:20:17.526Z,100486.91
2022-08-19T14:22:46.192Z,100483.59
2022-08-19T14:25:18.732Z,100489.16
2022-08-19T14:27:46.003Z,100483.94
2022-08-19T14:30:16.981Z,100491.44
2022-08-19T14:32:46.484Z,100492.03
2022-08-19T14:35:15.748Z,100499.38
2022-08-19T14:37:46.185Z,100503.41
2022-08-19T14:40:15.462Z,100507.91
2022-08-19T14:42:42.792Z,100501.28
2022-08-19T14:45:11.343Z,100499.47
2022-08-19T14:47:39.852Z,100501.19
2022-08-19T14:50:10.603Z,100501.00
2022-08-19T14:52:48.967Z,100502.13
2022-08-19T14:55:18.984Z,100498.53
2022-08-19T14:57:46.209Z,100508.28
2022-08-19T15:00:14.351Z,100511.88
2022-08-19T15:02:42.354Z,100518.56
2022-08-19T15:05:09.459Z,100517.25
2022-08-19T15:07:36.132Z,100515.09
2022-08-19T15:10:03.039Z,100524.84
2022-08-19T15:12:29.515Z,100525.75
2022-08-19T15:14:56.938Z,100525.84
2022-08-19T15:17:35.333Z,100531.19
2022-08-19T15:20:13.626Z,100526.84
2022-08-19T15:22:40.941Z,100530.84
2022-08-19T15:25:09.408Z,100546.22
2022-08-19T15:27:39.771Z,100544.16
2022-08-19T15:30:09.269Z,100545.97
2022-08-19T15:32:36.838Z,100536.16
2022-08-19T15:35:04.743Z,100539.94
2022-08-19T15:37:31.279Z,100549.50
2022-08-19T15:39:58.251Z,100550.50
2022-08-19T15:42:30.007Z,100543.97
2022-08-19T15:44:58.264Z,100555.72
2022-08-19T15:47:34.451Z,100552.19
2022-08-19T15:50:10.839Z,100555.31
2022-08-19T15:52:48.442Z,100558.69
2022-08-19T15:55:27.678Z,100556.03
2022-08-19T15:58:28.892Z,100554.22
2022-08-19T16:01:20.865Z,100546.84
2022-08-19T16:04:14.866Z,100555.81
2022-08-19T16:06:44.186Z,100547.03
2022-08-19T16:09:10.780Z,100555.41
2022-08-19T16:11:39.679Z,100553.50
2022-08-19T16:14:09.464Z,100546.59
2022-08-19T16:16:37.967Z,100558.81
2022-08-19T16:19:10.226Z,100556.03
2022-08-19T16:21:41.691Z,100558.81
2022-08-19T16:24:13.102Z,100557.69
2022-08-19T16:26:40.878Z,100560.16
2022-08-19T16:29:13.004Z,100560.44
2022-08-19T16:31:42.191Z,100552.13
2022-08-19T16:34:09.143Z,100552.13
2022-08-19T16:36:35.906Z,100559.63
2022-08-19T16:39:03.604Z,100562.72
2022-08-19T16:41:30.101Z,100561.03
2022-08-19T16:43:56.643Z,100568.53
2022-08-19T16:46:27.095Z,100562.75
2022-08-19T16:48:54.224Z,100562.22
2022-08-19T16:51:22.652Z,100561.09
2022-08-19T16:53:51.964Z,100567.22
2022-08-19T16:56:19.443Z,100578.34
2022-08-19T16:58:45.924Z,100572.88
2022-08-19T17:01:12.390Z,100568.50
2022-08-19T17:03:39.908Z,100565.50
2022-08-19T17:06:21.036Z,100563.31
2022-08-19T17:08:54.525Z,100562.50
2022-08-19T17:11:23.166Z,100566.19
2022-08-19T17:13:50.969Z,100564.53
2022-08-19T17:16:19.936Z,100564.31
2022-08-19T17:18:46.483Z,100560.47
2022-08-19T17:21:13.270Z,100562.44
2022-08-19T17:23:42.904Z,100559.41
2022-08-19T17:26:17.214Z,100572.69
2022-08-19T17:28:49.016Z,100565.53
2022-08-19T17:31:15.854Z,100563.63
2022-08-19T17:33:42.449Z,100557.84
2022-08-19T17:36:18.696Z,100570.84
2022-08-19T17:38:45.727Z,100563.44
2022-08-19T17:41:12.159Z,100557.13
2022-08-19T17:43:42.817Z,100558.81
2022-08-19T17:46:11.173Z,100556.88
2022-08-19T17:48:38.907Z,100554.69
2022-08-19T17:51:21.889Z,100556.91
2022-08-19T17:53:50.751Z,100553.91
2022-08-19T17:56:17.805Z,100555.56
2022-08-19T17:58:45.083Z,100555.34
2022-08-19T18:01:21.277Z,100551.50
2022-08-19T18:03:51.103Z,100551.50
2022-08-19T18:06:17.525Z,100547.91
2022-08-19T18:08:49.061Z,100546.03
2022-08-19T18:11:16.805Z,100547.69
2022-08-19T18:13:45.953Z,100549.66
2022-08-19T18:16:13.444Z,100540.00
2022-08-19T18:18:41.853Z,100543.88
2022-08-19T18:21:08.515Z,100545.78
2022-08-19T18:23:44.500Z,100546.09
2022-08-19T18:26:12.675Z,100546.09
2022-08-19T18:28:49.447Z,100546.09
2022-08-19T18:31:17.166Z,100546.91
2022-08-19T18:33:44.857Z,100549.94
2022-08-19T18:36:11.990Z,100547.47
2022-08-19T18:38:56.953Z,100554.66
2022-08-19T18:41:42.036Z,100566.25
2022-08-19T18:44:28.367Z,100562.94
2022-08-19T18:47:13.624Z,100564.88
2022-08-19T18:49:40.583Z,100557.16
2022-08-19T18:52:07.471Z,100559.38
2022-08-19T18:54:34.397Z,100560.78
2022-08-19T18:57:01.356Z,100560.50
2022-08-19T18:59:30.264Z,100553.63
2022-08-19T19:01:59.128Z,100570.75
2022-08-19T19:04:29.711Z,100567.16
2022-08-19T19:06:56.278Z,100578.78
2022-08-19T19:09:24.996Z,100584.56
2022-08-19T19:11:56.386Z,100598.63
2022-08-19T19:14:48.047Z,100603.63
2022-08-19T19:17:15.089Z,100609.97
2022-08-19T19:19:42.937Z,100610.78
2022-08-19T19:22:13.882Z,100610.78
2022-08-19T19:24:45.253Z,100620.13
2022-08-19T19:27:14.145Z,100626.72
2022-08-19T19:29:42.219Z,100632.22
2022-08-19T19:32:19.688Z,100632.75
2022-08-19T19:34:46.283Z,100639.88
2022-08-19T19:37:12.863Z,100626.09
2022-08-19T19:39:46.158Z,100627.41
2022-08-19T19:42:20.570Z,100635.34
2022-08-19T19:44:49.247Z,100642.19
2022-08-19T19:47:17.457Z,100642.44
2022-08-19T19:50:10.690Z,100646.78
2022-08-19T19:52:31.774Z,100649.22
2022-08-19T19:54:58.231Z,100656.06
2022-08-19T19:57:26.618Z,100659.59
2022-08-19T19:59:54.206Z,100667.81
2022-08-19T20:02:21.912Z,100665.59
2022-08-19T20:04:48.878Z,100664.16
2022-08-19T20:07:15.400Z,100665.28
2022-08-19T20:09:58.669Z,100658.13
2022-08-19T20:12:25.585Z,100663.06
2022-08-19T20:14:52.108Z,100656.97
2022-08-19T20:17:20.544Z,100667.97
2022-08-19T20:19:47.711Z,100665.78
2022-08-19T20:22:14.220Z,100661.34
2022-08-19T20:24:42.375Z,100664.38
2022-08-19T20:27:09.185Z,100664.09
2022-08-19T20:29:41.562Z,100662.41
2022-08-19T20:32:11.080Z,100666.78
2022-08-19T20:34:38.398Z,100670.31
2022-08-19T20:37:05.854Z,100676.34
2022-08-19T20:39:32.344Z,100674.38
2022-08-19T20:41:58.900Z,100687.56
2022-08-19T20:44:25.583Z,100682.59
2022-08-19T20:46:54.728Z,100689.19
2022-08-19T20:49:23.080Z,100694.09
2022-08-19T20:51:54.838Z,100694.94
2022-08-19T20:54:21.615Z,100705.63
2022-08-19T20:56:48.081Z,100706.47
2022-08-19T20:59:14.756Z,100702.88
2022-08-19T21:01:41.187Z,100710.28
2022-08-19T21:04:07.674Z,100710.28
2022-08-19T21:06:34.251Z,100705.31
2022-08-19T21:09:00.705Z,100708.88
2022-08-19T21:11:27.177Z,100724.56
2022-08-19T21:13:53.742Z,100712.47
2022-08-19T21:16:20.370Z,100708.06
2022-08-19T21:18:46.893Z,100707.81
2022-08-19T21:21:13.351Z,100701.50
2022-08-19T21:23:40.367Z,100705.06
2022-08-19T21:26:08.361Z,100703.97
2022-08-19T21:28:36.337Z,100710.28
2022-08-19T21:31:05.510Z,100716.63
2022-08-19T21:33:32.897Z,100712.78
2022-08-19T21:36:00.838Z,100708.09
2022-08-19T21:38:27.558Z,100710.59
2022-08-19T21:40:54.519Z,100711.44
2022-08-19T21:43:21.786Z,100710.59
2022-08-19T21:45:48.543Z,100713.34
2022-08-19T21:48:15.405Z,100723.78
2022-08-19T21:50:43.544Z,100722.13
2022-08-19T21:53:17.822Z,100721.28
2022-08-19T21:55:44.525Z,100717.13
2022-08-19T21:58:11.750Z,100718.22
2022-08-19T22:00:39.658Z,100711.09
2022-08-19T22:03:06.443Z,100711.59
2022-08-19T22:05:33.858Z,100711.03
2022-08-19T22:08:01.310Z,100722.28
2022-08-19T22:10:30.610Z,100717.06
2022-08-19T22:12:58.566Z,100720.88
2022-08-19T22:15:29.679Z,100715.91
2022-08-19T22:17:58.694Z,100711.50
2022-08-19T22:20:27.916Z,100715.31
2022-08-19T22:22:58.301Z,100712.56
2022-08-19T22:25:45.556Z,100719.75
2022-08-19T22:28:14.753Z,100716.41
2022-08-19T22:30:47.145Z,100731.22
2022-08-19T22:33:19.430Z,100723.84
2022-08-19T22:35:47.393Z,100724.09
2022-08-19T22:38:14.770Z,100727.09
2022-08-19T22:40:46.026Z,100729.59
2022-08-19T22:43:20.589Z,100730.66
2022-08-19T22:45:48.841Z,100725.41
2022-08-19T22:48:17.455Z,100727.56
2022-08-19T22:51:05.830Z,100719.84
2022-08-19T22:53:37.247Z,100723.13
2022-08-19T22:56:06.372Z,100728.31
2022-08-19T22:58:33.044Z,100727.97
2022-08-19T23:00:59.758Z,100730.41
2022-08-19T23:03:26.639Z,100723.75
2022-08-19T23:05:53.474Z,100723.69
2022-08-19T23:08:19.985Z,100719.56
2022-08-19T23:10:48.548Z,100718.13
2022-08-19T23:13:17.147Z,100720.34
2022-08-19T23:15:46.199Z,100719.75
2022-08-19T23:18:13.761Z,100721.09
2022-08-19T23:20:42.300Z,100716.94
2022-08-19T23:23:12.236Z,100710.03
2022-08-19T23:25:40.167Z,100714.13
2022-08-19T23:28:25.816Z,100714.38
2022-08-19T23:30:53.279Z,100716.56
2022-08-19T23:33:24.560Z,100715.16
2022-08-19T23:35:54.012Z,100712.94
2022-08-19T23:38:23.319Z,100711.78
2022-08-19T23:40:55.858Z,100711.19
2022-08-19T23:43:24.611Z,100705.59
2022-08-19T23:45:52.123Z,100707.19
2022-08-19T23:48:18.811Z,100709.59
2022-08-19T23:50:46.060Z,100703.56
2022-08-19T23:53:13.239Z,100693.06
2022-08-19T23:55:43.960Z,100693.34
2022-08-19T23:58:11.552Z,100692.75
